LEVX/VGO METAR and TAF weather

Enter ICAO airport designator
Station Type Date Time Source
LEVX METAR 2020/07/14 05:30 UTC NOAA

LEVX 140530Z 03007KT 350V080 CAVOK 16/10 Q1020 NOSIG


Station Type Date Time Source
LEVX Decoded METAR 2020/07/14 05:30 UTC NOAA

Vigo / Peinador, Spain (LEVX) 42-13N 008-38W 255M
Jul 14, 2020 - 01:30 AM EDT / 2020.07.14 0530 UTC
Wind: from the NNE (030 degrees) at 8 MPH (7 KT) (direction variable):0
Visibility: greater than 7 mile(s):0
Temperature: 60 F (16 C)
Dew Point: 50 F (10 C)
Relative Humidity: 67%
Pressure (altimeter): 30.12 in. Hg (1020 hPa)
ob: LEVX 140530Z 03007KT 350V080 CAVOK 16/10 Q1020 NOSIG
cycle: 5

Station Type Date Time Source
LEVX TAF 2020/07/14 06:27 UTC NOAA

TAF LEVX 140500Z 1406/1506 02009KT CAVOK TX26/1414Z TN17/1406Z
TEMPO 1414/1420 02015G25KT

Example: see airport list